sensor_id;sensor_type;location;lat;lon;timestamp;temperature;humidity
54824;DHT22;40724;53.196;5.980;2023-06-10T11:31:26;19.80;97.60
54824;DHT22;40724;53.196;5.980;2023-06-10T11:36:19;24.20;93.50
54824;DHT22;40724;53.196;5.980;2023-06-10T11:38:45;24.30;92.90
54824;DHT22;40724;53.196;5.980;2023-06-10T11:41:14;24.30;92.90
54824;DHT22;40724;53.196;5.980;2023-06-10T11:43:44;24.40;91.90
54824;DHT22;40724;53.196;5.980;2023-06-10T11:46:11;24.40;92.00
54824;DHT22;40724;53.196;5.980;2023-06-10T11:48:37;24.40;92.10
54824;DHT22;40724;53.196;5.980;2023-06-10T11:51:07;24.40;91.50
54824;DHT22;40724;53.196;5.980;2023-06-10T11:53:33;24.50;91.00
54824;DHT22;40724;53.196;5.980;2023-06-10T11:55:59;24.50;90.90
54824;DHT22;40724;53.196;5.980;2023-06-10T11:58:25;24.50;90.70
54824;DHT22;40724;53.196;5.980;2023-06-10T12:00:55;24.60;90.50
54824;DHT22;40724;53.196;5.980;2023-06-10T12:03:26;24.70;90.30
54824;DHT22;40724;53.196;5.980;2023-06-10T12:06:00;24.70;90.20
54824;DHT22;40724;53.196;5.980;2023-06-10T12:08:26;24.70;90.30
54824;DHT22;40724;53.196;5.980;2023-06-10T12:10:53;24.80;90.20
54824;DHT22;40724;53.196;5.980;2023-06-10T12:13:19;24.90;88.80
54824;DHT22;40724;53.196;5.980;2023-06-10T12:15:46;25.00;87.00
54824;DHT22;40724;53.196;5.980;2023-06-10T12:18:23;25.00;85.60
54824;DHT22;40724;53.196;5.980;2023-06-10T12:20:50;25.00;85.30
54824;DHT22;40724;53.196;5.980;2023-06-10T12:23:19;25.00;83.90
54824;DHT22;40724;53.196;5.980;2023-06-10T12:25:53;25.00;83.10
54824;DHT22;40724;53.196;5.980;2023-06-10T12:28:23;25.00;83.00
54824;DHT22;40724;53.196;5.980;2023-06-10T12:30:49;25.10;81.70
54824;DHT22;40724;53.196;5.980;2023-06-10T12:33:19;25.20;86.70
54824;DHT22;40724;53.196;5.980;2023-06-10T12:35:50;25.20;91.80
54824;DHT22;40724;53.196;5.980;2023-06-10T12:38:22;25.30;93.60
54824;DHT22;40724;53.196;5.980;2023-06-10T12:40:48;25.30;94.80
54824;DHT22;40724;53.196;5.980;2023-06-10T12:43:19;25.30;95.30
54824;DHT22;40724;53.196;5.980;2023-06-10T12:45:45;25.30;96.10
54824;DHT22;40724;53.196;5.980;2023-06-10T12:50:44;25.30;97.00
54824;DHT22;40724;53.196;5.980;2023-06-10T12:53:11;25.30;97.00
54824;DHT22;40724;53.196;5.980;2023-06-10T12:55:37;25.40;97.50
54824;DHT22;40724;53.196;5.980;2023-06-10T12:58:04;25.40;98.00
54824;DHT22;40724;53.196;5.980;2023-06-10T13:00:30;25.50;98.10
54824;DHT22;40724;53.196;5.980;2023-06-10T13:02:57;25.50;98.10
54824;DHT22;40724;53.196;5.980;2023-06-10T13:05:22;25.50;98.00
54824;DHT22;40724;53.196;5.980;2023-06-10T13:07:49;25.40;98.10
54824;DHT22;40724;53.196;5.980;2023-06-10T13:10:16;25.40;98.30
54824;DHT22;40724;53.196;5.980;2023-06-10T13:12:45;25.40;98.50
54824;DHT22;40724;53.196;5.980;2023-06-10T13:15:12;25.40;98.50
54824;DHT22;40724;53.196;5.980;2023-06-10T13:17:38;25.40;98.50
54824;DHT22;40724;53.196;5.980;2023-06-10T13:20:06;25.30;98.50
54824;DHT22;40724;53.196;5.980;2023-06-10T13:22:32;25.40;98.80
54824;DHT22;40724;53.196;5.980;2023-06-10T13:24:59;25.40;98.90
54824;DHT22;40724;53.196;5.980;2023-06-10T13:27:28;25.40;98.90
54824;DHT22;40724;53.196;5.980;2023-06-10T13:29:54;25.40;99.00
54824;DHT22;40724;53.196;5.980;2023-06-10T13:32:20;25.40;98.90
54824;DHT22;40724;53.196;5.980;2023-06-10T13:34:46;25.40;98.60
54824;DHT22;40724;53.196;5.980;2023-06-10T13:37:12;25.40;98.60
54824;DHT22;40724;53.196;5.980;2023-06-10T13:39:38;25.30;98.60
54824;DHT22;40724;53.196;5.980;2023-06-10T13:42:05;25.30;98.50
54824;DHT22;40724;53.196;5.980;2023-06-10T13:44:33;25.30;98.70
54824;DHT22;40724;53.196;5.980;2023-06-10T13:47:02;25.40;98.80
54824;DHT22;40724;53.196;5.980;2023-06-10T13:49:28;25.50;98.80
54824;DHT22;40724;53.196;5.980;2023-06-10T13:51:54;25.50;98.30
54824;DHT22;40724;53.196;5.980;2023-06-10T13:54:20;25.50;98.00
54824;DHT22;40724;53.196;5.980;2023-06-10T13:56:47;25.40;97.90
54824;DHT22;40724;53.196;5.980;2023-06-10T13:59:12;25.40;97.50
54824;DHT22;40724;53.196;5.980;2023-06-10T14:01:38;25.40;97.40
54824;DHT22;40724;53.196;5.980;2023-06-10T14:04:06;25.40;97.00
54824;DHT22;40724;53.196;5.980;2023-06-10T14:06:32;25.40;96.90
54824;DHT22;40724;53.196;5.980;2023-06-10T14:08:59;25.40;96.80
54824;DHT22;40724;53.196;5.980;2023-06-10T14:11:25;25.40;97.00
54824;DHT22;40724;53.196;5.980;2023-06-10T14:13:51;25.40;97.00
54824;DHT22;40724;53.196;5.980;2023-06-10T14:16:17;25.40;97.10
54824;DHT22;40724;53.196;5.980;2023-06-10T14:18:43;25.50;97.10
54824;DHT22;40724;53.196;5.980;2023-06-10T14:21:08;25.50;97.20
54824;DHT22;40724;53.196;5.980;2023-06-10T14:23:35;25.50;97.10
54824;DHT22;40724;53.196;5.980;2023-06-10T14:26:00;25.50;97.30
54824;DHT22;40724;53.196;5.980;2023-06-10T14:28:28;25.60;97.40
54824;DHT22;40724;53.196;5.980;2023-06-10T16:59:51;28.00;97.10
54824;DHT22;40724;53.196;5.980;2023-06-10T17:02:17;28.20;96.60
54824;DHT22;40724;53.196;5.980;2023-06-10T17:33:57;28.10;96.30
54824;DHT22;40724;53.196;5.980;2023-06-10T17:38:49;26.60;95.80
54824;DHT22;40724;53.196;5.980;2023-06-10T17:41:15;26.30;96.00
54824;DHT22;40724;53.196;5.980;2023-06-10T17:43:41;26.20;96.20
54824;DHT22;40724;53.196;5.980;2023-06-10T17:46:06;26.10;96.30
54824;DHT22;40724;53.196;5.980;2023-06-10T17:48:32;26.00;96.50
54824;DHT22;40724;53.196;5.980;2023-06-10T17:50:58;25.80;96.60
54824;DHT22;40724;53.196;5.980;2023-06-10T17:53:24;25.70;96.80
54824;DHT22;40724;53.196;5.980;2023-06-10T17:55:50;25.60;96.90
54824;DHT22;40724;53.196;5.980;2023-06-10T17:58:15;25.50;96.90
54824;DHT22;40724;53.196;5.980;2023-06-10T18:00:41;25.40;97.00
54824;DHT22;40724;53.196;5.980;2023-06-10T18:03:07;25.30;97.10
54824;DHT22;40724;53.196;5.980;2023-06-10T18:05:33;25.20;97.10
54824;DHT22;40724;53.196;5.980;2023-06-10T18:07:58;25.10;97.10
54824;DHT22;40724;53.196;5.980;2023-06-10T18:10:25;25.00;97.10
54824;DHT22;40724;53.196;5.980;2023-06-10T18:12:51;25.00;97.20
54824;DHT22;40724;53.196;5.980;2023-06-10T18:15:17;24.90;97.20
54824;DHT22;40724;53.196;5.980;2023-06-10T18:17:43;24.80;97.30
54824;DHT22;40724;53.196;5.980;2023-06-10T18:20:09;24.70;97.30
54824;DHT22;40724;53.196;5.980;2023-06-10T18:22:35;24.60;97.40
54824;DHT22;40724;53.196;5.980;2023-06-10T18:25:00;24.50;97.50
54824;DHT22;40724;53.196;5.980;2023-06-10T18:27:31;24.40;97.70
54824;DHT22;40724;53.196;5.980;2023-06-10T18:29:57;24.40;97.80
54824;DHT22;40724;53.196;5.980;2023-06-10T18:32:23;24.30;97.90
54824;DHT22;40724;53.196;5.980;2023-06-10T18:34:49;24.20;98.00
54824;DHT22;40724;53.196;5.980;2023-06-10T18:37:16;24.10;98.10
54824;DHT22;40724;53.196;5.980;2023-06-10T18:39:42;24.10;98.30
54824;DHT22;40724;53.196;5.980;2023-06-10T18:42:08;24.00;98.30
54824;DHT22;40724;53.196;5.980;2023-06-10T18:49:26;23.90;98.50
54824;DHT22;40724;53.196;5.980;2023-06-10T19:16:15;23.70;99.00
54824;DHT22;40724;53.196;5.980;2023-06-10T19:18:41;23.80;99.30
54824;DHT22;40724;53.196;5.980;2023-06-10T19:21:07;23.80;99.50
54824;DHT22;40724;53.196;5.980;2023-06-10T19:23:33;23.80;99.60
54824;DHT22;40724;53.196;5.980;2023-06-10T19:25:59;23.70;99.60
54824;DHT22;40724;53.196;5.980;2023-06-10T19:28:25;23.70;99.70
54824;DHT22;40724;53.196;5.980;2023-06-10T19:30:51;23.70;99.70
54824;DHT22;40724;53.196;5.980;2023-06-10T19:33:17;23.70;99.80
54824;DHT22;40724;53.196;5.980;2023-06-10T19:35:43;23.60;99.80
54824;DHT22;40724;53.196;5.980;2023-06-10T19:38:09;23.60;99.90
54824;DHT22;40724;53.196;5.980;2023-06-10T19:40:34;23.60;99.90
54824;DHT22;40724;53.196;5.980;2023-06-10T19:43:00;23.60;99.90
54824;DHT22;40724;53.196;5.980;2023-06-10T19:45:27;23.50;99.90
54824;DHT22;40724;53.196;5.980;2023-06-10T19:47:52;23.50;99.90
54824;DHT22;40724;53.196;5.980;2023-06-10T19:50:18;23.40;99.90
54824;DHT22;40724;53.196;5.980;2023-06-10T19:52:44;23.40;99.90
54824;DHT22;40724;53.196;5.980;2023-06-10T19:55:12;23.40;99.90
54824;DHT22;40724;53.196;5.980;2023-06-10T19:57:39;23.40;99.90
54824;DHT22;40724;53.196;5.980;2023-06-10T20:00:05;23.30;99.90
54824;DHT22;40724;53.196;5.980;2023-06-10T20:02:33;23.30;99.90
54824;DHT22;40724;53.196;5.980;2023-06-10T20:04:59;23.30;99.90
54824;DHT22;40724;53.196;5.980;2023-06-10T20:07:24;23.30;99.90
54824;DHT22;40724;53.196;5.980;2023-06-10T20:09:50;23.20;99.90
54824;DHT22;40724;53.196;5.980;2023-06-10T20:12:16;23.20;99.90
54824;DHT22;40724;53.196;5.980;2023-06-10T20:14:42;23.10;99.90
54824;DHT22;40724;53.196;5.980;2023-06-10T20:17:08;23.10;99.90
54824;DHT22;40724;53.196;5.980;2023-06-10T21:08:27;23.10;99.90
54824;DHT22;40724;53.196;5.980;2023-06-10T21:10:53;22.40;99.90
54824;DHT22;40724;53.196;5.980;2023-06-10T21:13:19;22.30;99.90
54824;DHT22;40724;53.196;5.980;2023-06-10T21:15:45;22.20;99.90
54824;DHT22;40724;53.196;5.980;2023-06-10T21:18:11;22.20;99.90
54824;DHT22;40724;53.196;5.980;2023-06-10T21:20:36;22.20;99.90
54824;DHT22;40724;53.196;5.980;2023-06-10T21:23:02;22.10;99.90
54824;DHT22;40724;53.196;5.980;2023-06-10T21:25:28;22.10;99.90
54824;DHT22;40724;53.196;5.980;2023-06-10T21:27:54;22.10;99.90
54824;DHT22;40724;53.196;5.980;2023-06-10T21:30:20;22.00;99.90
54824;DHT22;40724;53.196;5.980;2023-06-10T21:32:45;21.90;99.90
54824;DHT22;40724;53.196;5.980;2023-06-10T21:35:11;21.90;99.90
54824;DHT22;40724;53.196;5.980;2023-06-10T21:37:38;21.90;99.90
54824;DHT22;40724;53.196;5.980;2023-06-10T21:40:04;21.80;99.90
54824;DHT22;40724;53.196;5.980;2023-06-10T21:59:36;21.50;99.90
54824;DHT22;40724;53.196;5.980;2023-06-10T22:02:03;21.50;99.90
54824;DHT22;40724;53.196;5.980;2023-06-10T22:04:30;21.40;99.90
54824;DHT22;40724;53.196;5.980;2023-06-10T22:06:56;21.40;99.90
54824;DHT22;40724;53.196;5.980;2023-06-10T22:09:21;21.40;99.90
54824;DHT22;40724;53.196;5.980;2023-06-10T22:11:47;21.30;99.90
54824;DHT22;40724;53.196;5.980;2023-06-10T22:14:13;21.30;99.90
54824;DHT22;40724;53.196;5.980;2023-06-10T22:16:39;21.30;99.90
54824;DHT22;40724;53.196;5.980;2023-06-10T22:33:47;21.20;99.90
54824;DHT22;40724;53.196;5.980;2023-06-10T22:36:13;21.10;99.90
54824;DHT22;40724;53.196;5.980;2023-06-10T22:38:39;21.00;99.90
54824;DHT22;40724;53.196;5.980;2023-06-10T22:41:04;21.00;99.90
54824;DHT22;40724;53.196;5.980;2023-06-10T22:43:30;21.00;99.90
54824;DHT22;40724;53.196;5.980;2023-06-10T22:45:56;21.00;99.90
54824;DHT22;40724;53.196;5.980;2023-06-10T22:48:22;20.90;99.90
54824;DHT22;40724;53.196;5.980;2023-06-10T22:50:47;20.90;99.90
54824;DHT22;40724;53.196;5.980;2023-06-10T22:53:13;20.90;99.90
54824;DHT22;40724;53.196;5.980;2023-06-10T22:55:39;20.80;99.90
54824;DHT22;40724;53.196;5.980;2023-06-10T22:58:05;20.80;99.90
54824;DHT22;40724;53.196;5.980;2023-06-10T23:00:31;20.80;99.90
54824;DHT22;40724;53.196;5.980;2023-06-10T23:02:58;20.80;99.90
54824;DHT22;40724;53.196;5.980;2023-06-10T23:05:23;20.70;99.90
54824;DHT22;40724;53.196;5.980;2023-06-10T23:07:49;20.70;99.90
54824;DHT22;40724;53.196;5.980;2023-06-10T23:37:12;20.60;99.90
54824;DHT22;40724;53.196;5.980;2023-06-10T23:39:38;20.40;99.90
